createdAt,value
2024-01-24T00:00:25.760Z,5.26
2024-01-24T00:01:28.441Z,5.13
2024-01-24T00:02:31.074Z,5.23
2024-01-24T00:03:33.805Z,5.36
2024-01-24T00:04:36.437Z,5.36
2024-01-24T00:05:39.214Z,5.39
2024-01-24T00:06:41.892Z,5.42
2024-01-24T00:07:44.716Z,5.34
2024-01-24T00:08:49.514Z,5.41
2024-01-24T00:09:52.081Z,5.45
2024-01-24T00:10:54.723Z,5.36
2024-01-24T00:11:57.537Z,5.36
2024-01-24T00:13:00.288Z,5.45
2024-01-24T00:14:03.078Z,5.46
2024-01-24T00:15:06.448Z,5.36
2024-01-24T00:16:09.778Z,5.31
2024-01-24T00:17:12.316Z,5.32
2024-01-24T00:18:15.176Z,5.20
2024-01-24T00:19:18.146Z,5.18
2024-01-24T00:20:20.758Z,5.24
2024-01-24T00:21:23.419Z,5.28
2024-01-24T00:22:26.145Z,5.24
2024-01-24T00:23:28.889Z,5.23
2024-01-24T00:24:31.459Z,5.32
2024-01-24T00:25:34.041Z,5.30
2024-01-24T00:26:39.468Z,5.21
2024-01-24T00:27:42.433Z,5.25
2024-01-24T00:28:45.068Z,5.27
2024-01-24T00:29:47.605Z,5.33
2024-01-24T00:30:50.371Z,5.25
2024-01-24T00:31:56.865Z,5.23
2024-01-24T00:33:01.170Z,5.19
2024-01-24T00:34:03.829Z,5.27
2024-01-24T00:35:07.059Z,5.21
2024-01-24T00:36:09.674Z,5.16
2024-01-24T00:37:12.316Z,5.33
2024-01-24T00:38:14.894Z,5.33
2024-01-24T00:39:18.290Z,5.37
2024-01-24T00:40:20.931Z,5.28
2024-01-24T00:41:23.608Z,5.28
2024-01-24T00:42:26.240Z,5.27
2024-01-24T00:43:28.882Z,5.33
2024-01-24T00:44:31.425Z,5.25
2024-01-24T00:45:34.018Z,5.31
2024-01-24T00:46:36.688Z,5.28
2024-01-24T00:47:40.591Z,5.36
2024-01-24T00:48:43.330Z,5.27
2024-01-24T00:49:45.954Z,5.22
2024-01-24T00:50:48.528Z,5.24
2024-01-24T00:51:51.117Z,5.28
2024-01-24T00:52:56.707Z,5.37
2024-01-24T00:53:59.990Z,5.33
2024-01-24T00:55:02.904Z,5.28
2024-01-24T00:56:06.190Z,5.30
2024-01-24T00:57:09.267Z,5.25
2024-01-24T00:58:11.881Z,5.24
2024-01-24T00:59:14.673Z,5.15
2024-01-24T01:00:17.692Z,5.24
2024-01-24T01:01:21.277Z,5.15
2024-01-24T01:02:23.973Z,5.03
2024-01-24T01:03:26.680Z,5.17
2024-01-24T01:04:29.381Z,5.19
2024-01-24T01:05:32.065Z,5.11
2024-01-24T01:06:34.705Z,5.15
2024-01-24T01:07:37.237Z,5.17
2024-01-24T01:08:39.898Z,5.21
2024-01-24T01:09:42.427Z,5.16
2024-01-24T01:10:45.020Z,5.16
2024-01-24T01:11:47.597Z,5.20
2024-01-24T01:12:50.160Z,5.09
2024-01-24T01:13:52.858Z,5.04
2024-01-24T01:14:55.538Z,5.10
2024-01-24T01:15:58.098Z,5.10
2024-01-24T01:17:00.682Z,5.02
2024-01-24T01:18:03.579Z,5.05
2024-01-24T01:19:06.285Z,5.04
2024-01-24T01:20:10.902Z,5.02
2024-01-24T01:21:13.573Z,5.01
2024-01-24T01:22:16.756Z,5.13
2024-01-24T01:23:19.841Z,5.11
2024-01-24T01:24:22.398Z,5.11
2024-01-24T01:25:24.957Z,5.03
2024-01-24T01:26:27.567Z,5.11
2024-01-24T01:27:30.177Z,4.95
2024-01-24T01:28:32.765Z,5.00
2024-01-24T01:29:35.588Z,4.89
2024-01-24T01:30:38.202Z,4.86
2024-01-24T01:31:40.750Z,4.92
2024-01-24T01:32:44.509Z,4.97
2024-01-24T01:33:47.216Z,4.93
2024-01-24T01:34:49.895Z,4.86
2024-01-24T01:35:57.788Z,4.90
2024-01-24T01:37:03.805Z,4.90
2024-01-24T01:38:06.419Z,4.97
2024-01-24T01:39:10.048Z,4.92
2024-01-24T01:40:12.968Z,4.89
2024-01-24T01:41:15.537Z,4.86
2024-01-24T01:42:18.396Z,4.77
2024-01-24T01:43:21.084Z,4.74
2024-01-24T01:44:23.811Z,4.77
2024-01-24T01:45:26.406Z,4.79
2024-01-24T01:46:29.409Z,4.83
2024-01-24T01:47:32.408Z,4.78
2024-01-24T01:48:35.881Z,4.74
2024-01-24T01:49:39.615Z,4.72
2024-01-24T01:50:42.399Z,4.63
2024-01-24T01:51:46.783Z,4.65
2024-01-24T01:52:49.774Z,4.83
2024-01-24T01:53:52.753Z,4.87
2024-01-24T01:54:55.745Z,4.65
2024-01-24T01:55:58.727Z,4.52
2024-01-24T01:57:02.324Z,4.57
2024-01-24T01:58:05.709Z,4.56
2024-01-24T01:59:09.430Z,4.63
2024-01-24T02:00:20.754Z,4.73
2024-01-24T02:01:24.244Z,4.69
2024-01-24T02:02:27.416Z,4.60
2024-01-24T02:03:30.221Z,4.65
2024-01-24T02:04:33.043Z,4.71
2024-01-24T02:05:39.044Z,4.63
2024-01-24T02:06:42.038Z,4.60
2024-01-24T02:07:45.933Z,4.66
2024-01-24T02:08:48.842Z,4.59
2024-01-24T02:09:51.527Z,4.60
2024-01-24T02:10:55.131Z,4.61
2024-01-24T02:11:57.839Z,4.67
2024-01-24T02:13:00.540Z,4.67
2024-01-24T02:14:03.668Z,4.59
2024-01-24T02:15:07.487Z,4.68
2024-01-24T02:16:11.523Z,4.58
2024-01-24T02:17:14.119Z,4.62
2024-01-24T02:18:16.844Z,4.79
2024-01-24T02:19:19.521Z,4.77
2024-01-24T02:20:23.674Z,4.75
2024-01-24T02:21:26.303Z,4.76
2024-01-24T02:22:28.905Z,4.87
2024-01-24T02:23:31.686Z,4.77
2024-01-24T02:24:34.416Z,4.79
2024-01-24T02:25:37.050Z,4.84
2024-01-24T02:26:40.350Z,4.84
2024-01-24T02:27:45.159Z,4.82
2024-01-24T02:28:49.421Z,4.75
2024-01-24T02:29:52.009Z,4.73
2024-01-24T02:30:54.676Z,4.68
2024-01-24T02:31:57.387Z,4.53
2024-01-24T02:33:00.338Z,4.65
2024-01-24T02:34:03.103Z,4.62
2024-01-24T02:35:06.490Z,4.58
2024-01-24T02:36:11.067Z,4.56
2024-01-24T02:37:13.761Z,4.58
2024-01-24T02:38:16.336Z,4.54
2024-01-24T02:39:19.158Z,4.51
2024-01-24T02:40:22.566Z,4.49
2024-01-24T02:41:25.145Z,4.43
2024-01-24T02:42:27.732Z,4.39
2024-01-24T02:43:30.305Z,4.38
2024-01-24T02:44:32.820Z,4.37
2024-01-24T02:45:35.559Z,4.33
2024-01-24T02:46:38.545Z,4.31
2024-01-24T02:47:41.190Z,4.35
2024-01-24T02:48:43.821Z,4.33
2024-01-24T02:49:46.546Z,4.31
2024-01-24T02:50:49.133Z,4.29
2024-01-24T02:51:51.927Z,4.31
2024-01-24T02:52:54.674Z,4.28
2024-01-24T02:53:57.285Z,4.30
2024-01-24T02:54:59.990Z,4.23
2024-01-24T02:56:03.505Z,4.29
2024-01-24T02:57:06.210Z,4.26
2024-01-24T02:58:08.957Z,4.26
2024-01-24T02:59:11.866Z,4.23
2024-01-24T03:00:15.164Z,4.26
2024-01-24T03:01:18.125Z,4.16
2024-01-24T03:02:20.766Z,4.17
2024-01-24T03:03:23.364Z,4.08
2024-01-24T03:04:26.187Z,4.12
2024-01-24T03:05:29.180Z,4.19
2024-01-24T03:06:31.749Z,4.30
2024-01-24T03:07:35.718Z,4.31
2024-01-24T03:08:57.874Z,4.20
2024-01-24T03:10:00.541Z,4.07
2024-01-24T03:11:03.076Z,4.01
2024-01-24T03:12:06.117Z,3.94
2024-01-24T03:13:09.133Z,4.01
2024-01-24T03:14:11.777Z,4.06
2024-01-24T03:15:14.454Z,4.07
2024-01-24T03:16:18.506Z,4.07
2024-01-24T03:17:21.146Z,4.04
2024-01-24T03:18:25.064Z,4.01
2024-01-24T03:19:27.908Z,3.97
2024-01-24T03:20:30.666Z,3.97
2024-01-24T03:21:33.953Z,3.98
2024-01-24T03:22:36.818Z,3.98
2024-01-24T03:23:39.633Z,4.00
2024-01-24T03:24:42.275Z,3.99
2024-01-24T03:25:44.803Z,3.95
2024-01-24T03:26:47.476Z,3.94
2024-01-24T03:27:50.161Z,3.90
2024-01-24T03:28:52.782Z,3.83
2024-01-24T03:29:56.405Z,3.82
2024-01-24T03:30:59.134Z,3.75
2024-01-24T03:32:01.676Z,3.74
2024-01-24T03:33:05.922Z,3.74
2024-01-24T03:34:08.744Z,3.71
2024-01-24T03:35:11.596Z,3.67
2024-01-24T03:36:14.362Z,3.65
2024-01-24T03:37:16.915Z,3.69
2024-01-24T03:38:21.110Z,3.64
2024-01-24T03:39:24.103Z,3.64
2024-01-24T03:40:26.661Z,3.67
2024-01-24T03:41:29.264Z,3.62
2024-01-24T03:42:33.144Z,3.60
2024-01-24T03:43:39.978Z,3.62
2024-01-24T03:44:42.701Z,3.70
2024-01-24T03:45:45.349Z,3.71
2024-01-24T03:46:47.950Z,3.70
2024-01-24T03:47:51.135Z,3.71
2024-01-24T03:48:54.051Z,3.71
2024-01-24T03:49:56.673Z,3.68
2024-01-24T03:50:59.808Z,3.63
2024-01-24T03:52:02.954Z,3.62
2024-01-24T03:53:06.230Z,3.61
2024-01-24T03:54:08.926Z,3.65
2024-01-24T03:55:11.577Z,3.68
2024-01-24T03:56:14.196Z,3.70
2024-01-24T03:57:16.980Z,3.69
2024-01-24T03:58:20.071Z,3.68
2024-01-24T03:59:22.739Z,3.70
2024-01-24T04:00:25.814Z,3.70
2024-01-24T04:01:28.505Z,3.70
2024-01-24T04:02:31.155Z,3.68
2024-01-24T04:03:33.960Z,3.67
2024-01-24T04:04:36.696Z,3.65
2024-01-24T04:05:39.298Z,3.67
2024-01-24T04:06:42.153Z,3.64
2024-01-24T04:07:44.902Z,3.61
2024-01-24T04:08:47.540Z,3.60
2024-01-24T04:09:50.209Z,3.62
2024-01-24T04:10:52.821Z,3.61
2024-01-24T04:11:55.492Z,3.59
2024-01-24T04:12:58.137Z,3.59
2024-01-24T04:14:02.718Z,3.55
2024-01-24T04:15:09.571Z,3.54
2024-01-24T04:16:12.279Z,3.53
2024-01-24T04:17:14.995Z,3.49
2024-01-24T04:18:17.842Z,3.47
2024-01-24T04:19:20.674Z,3.47
2024-01-24T04:20:23.549Z,3.45
2024-01-24T04:21:26.118Z,3.43
2024-01-24T04:22:28.673Z,3.39
2024-01-24T04:23:31.246Z,3.39
2024-01-24T04:24:33.794Z,3.40
2024-01-24T04:25:36.555Z,3.44
2024-01-24T04:26:40.810Z,3.44
2024-01-24T04:27:43.653Z,3.41
2024-01-24T04:28:46.235Z,3.40
2024-01-24T04:29:48.896Z,3.38
2024-01-24T04:30:51.816Z,3.38
2024-01-24T04:31:54.412Z,3.34
2024-01-24T04:32:57.082Z,3.27
2024-01-24T04:33:59.898Z,3.24
2024-01-24T04:35:02.560Z,3.17
2024-01-24T04:36:05.601Z,3.16
2024-01-24T04:37:08.746Z,3.14
2024-01-24T04:38:11.378Z,3.12
2024-01-24T04:39:14.029Z,3.04
2024-01-24T04:40:16.831Z,3.05
2024-01-24T04:41:19.617Z,3.04
2024-01-24T04:42:22.308Z,3.00
2024-01-24T04:43:24.958Z,2.97
2024-01-24T04:44:27.554Z,2.97
2024-01-24T04:45:30.150Z,2.96
2024-01-24T04:46:32.753Z,2.93
2024-01-24T04:47:35.381Z,2.91
2024-01-24T04:48:39.257Z,2.93
2024-01-24T04:49:45.230Z,2.94
2024-01-24T04:50:49.196Z,2.94
2024-01-24T04:51:52.202Z,2.93
2024-01-24T04:52:54.874Z,2.95
2024-01-24T04:53:57.672Z,2.98
2024-01-24T04:55:00.375Z,2.99
2024-01-24T04:56:03.804Z,2.96
2024-01-24T04:57:06.396Z,2.96
2024-01-24T04:58:09.033Z,2.96
2024-01-24T04:59:15.566Z,2.93
2024-01-24T05:00:18.845Z,2.90
2024-01-24T05:01:21.645Z,2.91
2024-01-24T05:02:24.536Z,2.89
2024-01-24T05:03:27.576Z,2.87
2024-01-24T05:04:30.360Z,2.88
2024-01-24T05:05:33.044Z,2.87
2024-01-24T05:06:36.512Z,2.89
2024-01-24T05:07:40.093Z,2.88
2024-01-24T05:08:42.673Z,2.90
2024-01-24T05:09:45.331Z,2.91
2024-01-24T05:10:48.112Z,2.96
2024-01-24T05:11:50.711Z,3.00
2024-01-24T05:12:53.523Z,2.98
2024-01-24T05:14:01.215Z,2.99
2024-01-24T05:15:04.186Z,2.99
2024-01-24T05:16:06.973Z,3.03
2024-01-24T05:17:09.720Z,3.08
2024-01-24T05:18:12.414Z,3.06
2024-01-24T05:19:15.236Z,3.11
2024-01-24T05:20:18.644Z,3.09
2024-01-24T05:21:21.449Z,3.06
2024-01-24T05:22:24.082Z,3.04
2024-01-24T05:23:26.654Z,3.00
2024-01-24T05:24:29.279Z,2.98
2024-01-24T05:25:32.113Z,2.98
2024-01-24T05:26:34.682Z,2.98
2024-01-24T05:27:37.544Z,2.94
2024-01-24T05:28:41.825Z,2.88
2024-01-24T05:29:46.762Z,2.83
2024-01-24T05:30:49.437Z,2.83
2024-01-24T05:31:52.113Z,2.84
2024-01-24T05:32:58.878Z,2.93
2024-01-24T05:34:03.652Z,2.88
2024-01-24T05:35:07.285Z,2.88
2024-01-24T05:36:11.064Z,2.87
2024-01-24T05:37:13.997Z,2.89
2024-01-24T05:38:16.619Z,2.89
2024-01-24T05:39:19.310Z,2.93
2024-01-24T05:40:22.904Z,2.98
2024-01-24T05:41:26.240Z,3.08
2024-01-24T05:42:28.847Z,3.12
2024-01-24T05:43:31.514Z,3.20
2024-01-24T05:44:34.073Z,3.23
2024-01-24T05:45:36.691Z,3.21
2024-01-24T05:46:39.434Z,3.18
2024-01-24T05:47:43.834Z,3.24
2024-01-24T05:48:47.271Z,3.31
2024-01-24T05:49:50.008Z,3.38
2024-01-24T05:50:52.613Z,3.40
2024-01-24T05:51:55.249Z,3.44
2024-01-24T05:52:59.218Z,3.43
2024-01-24T05:54:01.795Z,3.42
2024-01-24T05:55:05.667Z,3.43
2024-01-24T05:56:08.474Z,3.39
2024-01-24T05:57:11.089Z,3.34
2024-01-24T05:58:13.738Z,3.31
2024-01-24T05:59:16.317Z,3.30
2024-01-24T06:00:18.978Z,3.30
2024-01-24T06:01:22.770Z,3.32
2024-01-24T06:02:25.335Z,3.31
2024-01-24T06:03:27.916Z,3.33
2024-01-24T06:04:31.217Z,3.29
2024-01-24T06:05:34.227Z,3.28
2024-01-24T06:06:37.121Z,3.27
2024-01-24T06:07:40.300Z,3.23
2024-01-24T06:08:44.851Z,3.17
2024-01-24T06:09:47.507Z,3.11
2024-01-24T06:10:50.238Z,3.09
2024-01-24T06:11:52.774Z,3.10
2024-01-24T06:12:55.432Z,3.09
2024-01-24T06:13:57.974Z,3.12
2024-01-24T06:15:00.718Z,3.17
2024-01-24T06:16:03.755Z,3.15
2024-01-24T06:17:06.446Z,3.15
2024-01-24T06:18:09.191Z,3.12
2024-01-24T06:19:11.892Z,3.12
2024-01-24T06:20:15.087Z,3.10
2024-01-24T06:21:17.798Z,3.05
2024-01-24T06:22:20.407Z,3.02
2024-01-24T06:23:23.018Z,3.02
2024-01-24T06:24:25.695Z,3.06
2024-01-24T06:25:28.341Z,3.06
2024-01-24T06:26:31.794Z,3.13
2024-01-24T06:27:36.310Z,3.19
2024-01-24T06:28:39.148Z,3.23
2024-01-24T06:30:16.506Z,3.31
2024-01-24T06:31:04.530Z,3.32
2024-01-24T06:32:08.044Z,3.38
2024-01-24T06:33:10.711Z,3.42
2024-01-24T06:34:13.760Z,3.48
2024-01-24T06:35:16.435Z,3.54
2024-01-24T06:36:19.220Z,3.59
2024-01-24T06:37:22.338Z,3.60
2024-01-24T06:38:25.069Z,3.65
2024-01-24T06:39:28.268Z,3.71
2024-01-24T06:40:31.170Z,3.78
2024-01-24T06:41:34.592Z,3.86
2024-01-24T06:42:39.005Z,3.92
2024-01-24T06:43:43.622Z,3.98
2024-01-24T06:44:46.487Z,4.03
2024-01-24T06:45:49.176Z,4.13
2024-01-24T06:46:52.415Z,4.22
2024-01-24T06:47:55.022Z,4.30
2024-01-24T06:48:57.684Z,4.41
2024-01-24T06:50:00.366Z,4.44
2024-01-24T06:51:02.976Z,4.57
2024-01-24T06:52:05.920Z,4.76
2024-01-24T06:53:11.574Z,4.84
2024-01-24T06:54:14.440Z,4.87
2024-01-24T06:55:18.755Z,4.94
2024-01-24T06:56:22.661Z,5.02
2024-01-24T06:57:25.439Z,5.10
2024-01-24T06:58:28.016Z,5.30
2024-01-24T06:59:32.760Z,5.42
2024-01-24T07:00:35.502Z,5.47
2024-01-24T07:01:38.210Z,5.62
2024-01-24T07:02:40.823Z,5.72
2024-01-24T07:03:43.510Z,5.89
2024-01-24T07:04:46.333Z,6.00
2024-01-24T07:05:49.111Z,6.10
2024-01-24T07:06:51.979Z,6.21
2024-01-24T07:07:54.603Z,6.31
2024-01-24T07:08:57.620Z,6.51
2024-01-24T07:10:00.409Z,6.66
2024-01-24T07:11:03.526Z,6.80
2024-01-24T07:12:06.811Z,6.95
2024-01-24T07:13:09.749Z,7.15
2024-01-24T07:14:16.031Z,7.27
2024-01-24T07:15:19.157Z,7.34
2024-01-24T07:16:21.783Z,7.48
2024-01-24T07:17:24.859Z,7.53
2024-01-24T07:18:28.272Z,7.55
2024-01-24T07:19:31.000Z,7.59
2024-01-24T07:20:33.570Z,7.63
2024-01-24T07:21:36.816Z,7.72
2024-01-24T07:22:40.173Z,7.75
2024-01-24T07:23:42.782Z,7.78
2024-01-24T07:24:46.045Z,7.81
2024-01-24T07:25:48.905Z,7.93
2024-01-24T07:26:51.542Z,8.07
2024-01-24T07:27:54.721Z,8.26
2024-01-24T07:28:57.413Z,8.47
2024-01-24T07:30:00.399Z,8.62
2024-01-24T07:31:03.804Z,8.80
2024-01-24T07:32:07.296Z,8.93
2024-01-24T07:33:09.906Z,9.01
2024-01-24T07:34:13.123Z,9.01
2024-01-24T07:35:16.770Z,8.94
2024-01-24T07:36:22.500Z,8.92
2024-01-24T07:37:25.157Z,8.97
2024-01-24T07:38:27.806Z,9.14
2024-01-24T07:39:30.855Z,9.26
2024-01-24T07:40:33.537Z,9.41
2024-01-24T07:41:36.429Z,9.63
2024-01-24T07:42:39.193Z,9.81
2024-01-24T07:43:42.806Z,9.99
2024-01-24T07:44:45.331Z,10.06
2024-01-24T07:45:48.006Z,10.10
2024-01-24T07:46:50.991Z,10.15
2024-01-24T07:47:54.880Z,10.11
2024-01-24T07:48:58.001Z,10.25
2024-01-24T07:50:01.220Z,10.35
2024-01-24T07:51:05.807Z,10.50
2024-01-24T07:52:08.717Z,10.71
2024-01-24T07:53:12.234Z,10.98
2024-01-24T07:54:14.963Z,11.18
2024-01-24T07:55:24.813Z,11.67
2024-01-24T07:56:31.719Z,11.97
2024-01-24T07:57:34.570Z,12.21
2024-01-24T07:58:40.197Z,12.63
2024-01-24T07:59:42.927Z,12.92
2024-01-24T08:00:46.790Z,12.85
2024-01-24T08:01:50.080Z,12.99
2024-01-24T08:02:53.429Z,13.63
2024-01-24T08:03:56.688Z,14.01
2024-01-24T08:05:00.426Z,14.24
2024-01-24T08:06:03.730Z,14.62
2024-01-24T08:07:07.345Z,14.94
2024-01-24T08:08:10.025Z,14.93
2024-01-24T08:09:13.704Z,14.78
2024-01-24T08:10:16.956Z,14.59
2024-01-24T08:11:22.626Z,14.69
2024-01-24T08:12:25.442Z,14.69
2024-01-24T08:13:28.068Z,14.71
2024-01-24T08:14:31.482Z,14.80
2024-01-24T08:15:34.711Z,14.87
2024-01-24T08:16:37.562Z,15.24
2024-01-24T08:17:40.257Z,15.36
2024-01-24T08:18:43.052Z,15.29
2024-01-24T08:19:46.358Z,15.04
2024-01-24T08:20:49.169Z,15.19
2024-01-24T08:21:51.849Z,15.14
2024-01-24T08:22:54.511Z,14.41
2024-01-24T08:23:57.160Z,14.93
2024-01-24T08:24:59.871Z,15.57
2024-01-24T08:26:02.699Z,15.58
2024-01-24T08:27:05.646Z,15.98
2024-01-24T08:28:09.429Z,16.60
2024-01-24T08:29:19.035Z,16.78
2024-01-24T08:30:28.375Z,16.92
2024-01-24T08:31:31.016Z,16.65
2024-01-24T08:32:33.859Z,16.41
2024-01-24T08:33:36.684Z,16.24
2024-01-24T08:34:40.308Z,16.13
2024-01-24T08:35:42.965Z,16.12
2024-01-24T08:36:45.824Z,16.05
2024-01-24T08:37:48.588Z,15.98
2024-01-24T08:38:51.942Z,15.87
2024-01-24T08:39:54.736Z,16.05
2024-01-24T08:40:57.645Z,15.97
2024-01-24T08:42:00.196Z,15.96
2024-01-24T08:43:02.975Z,16.13
2024-01-24T08:44:06.066Z,16.28
2024-01-24T08:45:10.361Z,16.45
2024-01-24T08:46:13.062Z,16.57
2024-01-24T08:47:15.730Z,16.57
2024-01-24T08:48:22.901Z,16.87
2024-01-24T08:49:26.211Z,16.98
2024-01-24T08:50:29.019Z,17.16
2024-01-24T08:51:32.993Z,17.32
2024-01-24T08:52:36.606Z,17.07
2024-01-24T08:53:39.393Z,16.67
2024-01-24T08:54:44.754Z,17.29
2024-01-24T08:55:48.579Z,16.74
2024-01-24T08:56:51.532Z,15.69
2024-01-24T08:57:55.514Z,14.45
2024-01-24T08:58:58.352Z,12.61
2024-01-24T09:00:01.192Z,13.09
2024-01-24T09:01:04.598Z,14.00
2024-01-24T09:02:08.640Z,14.51
2024-01-24T09:03:12.355Z,14.52
2024-01-24T09:04:15.661Z,14.52
2024-01-24T09:05:22.136Z,13.55
2024-01-24T09:06:26.407Z,13.79
2024-01-24T09:07:29.103Z,14.06
2024-01-24T09:08:31.661Z,14.36
2024-01-24T09:09:36.611Z,14.96
2024-01-24T09:10:40.666Z,14.80
2024-01-24T09:11:50.413Z,14.39
2024-01-24T09:12:59.375Z,13.47
2024-01-24T09:14:01.968Z,12.95
2024-01-24T09:15:05.736Z,13.54
2024-01-24T09:16:09.259Z,13.59
2024-01-24T09:17:13.529Z,12.99
2024-01-24T09:18:19.720Z,13.39
2024-01-24T09:19:23.279Z,13.93
2024-01-24T09:20:26.209Z,14.09
2024-01-24T09:21:28.893Z,13.26
2024-01-24T09:22:31.693Z,13.55
2024-01-24T09:23:34.592Z,13.74
2024-01-24T09:24:38.414Z,13.53
2024-01-24T09:25:41.031Z,13.76
2024-01-24T09:26:43.819Z,13.62
2024-01-24T09:27:47.074Z,13.78
2024-01-24T09:28:49.638Z,13.68
2024-01-24T09:29:52.749Z,13.58
2024-01-24T09:30:55.502Z,13.94
2024-01-24T09:31:59.091Z,13.74
2024-01-24T09:33:01.926Z,13.86
2024-01-24T09:34:04.751Z,13.23
2024-01-24T09:35:08.202Z,13.70
2024-01-24T09:36:11.208Z,12.87
2024-01-24T09:37:14.006Z,13.26
2024-01-24T09:38:17.027Z,13.39
2024-01-24T09:39:19.886Z,12.07
2024-01-24T09:40:22.875Z,12.00
2024-01-24T09:41:26.610Z,12.18
2024-01-24T09:42:33.367Z,12.07
2024-01-24T09:43:40.363Z,12.27
2024-01-24T09:44:48.069Z,12.12
2024-01-24T09:45:51.894Z,12.06
2024-01-24T09:46:56.849Z,12.41
2024-01-24T09:48:00.004Z,12.72
2024-01-24T09:49:04.531Z,13.04
2024-01-24T09:50:09.973Z,12.99
2024-01-24T09:51:14.774Z,12.92
2024-01-24T09:52:25.282Z,12.51
2024-01-24T09:53:32.037Z,12.10
2024-01-24T09:54:36.349Z,12.19
2024-01-24T09:55:39.118Z,12.16
2024-01-24T09:56:42.555Z,12.31
2024-01-24T09:57:47.002Z,11.79
2024-01-24T09:58:49.637Z,11.66
2024-01-24T09:59:52.705Z,11.54
2024-01-24T10:00:58.788Z,11.83
2024-01-24T10:02:01.545Z,12.20
2024-01-24T10:03:05.292Z,12.15
2024-01-24T10:04:11.681Z,12.42
2024-01-24T10:05:18.634Z,11.92
2024-01-24T10:06:22.310Z,11.85
2024-01-24T10:07:25.030Z,11.19
2024-01-24T10:08:29.002Z,11.55
2024-01-24T10:09:31.748Z,11.17
2024-01-24T10:10:34.518Z,11.42
2024-01-24T10:11:37.115Z,11.94
2024-01-24T10:12:43.047Z,12.00
2024-01-24T10:13:45.758Z,10.92
2024-01-24T10:14:48.372Z,10.80
2024-01-24T10:15:51.144Z,11.08
2024-01-24T10:16:53.957Z,11.46
2024-01-24T10:17:57.334Z,11.42
2024-01-24T10:19:00.292Z,11.87
2024-01-24T10:20:07.471Z,11.83
2024-01-24T10:21:10.326Z,10.87
2024-01-24T10:22:13.092Z,11.55
2024-01-24T10:23:17.105Z,10.84
2024-01-24T10:24:20.829Z,11.64
2024-01-24T10:25:23.853Z,11.16
2024-01-24T10:26:28.290Z,10.43
2024-01-24T10:27:31.794Z,11.02
2024-01-24T10:28:36.306Z,11.25
2024-01-24T10:29:45.111Z,11.40
2024-01-24T10:30:50.285Z,11.42
2024-01-24T10:31:57.623Z,11.51
2024-01-24T10:33:00.369Z,11.33
2024-01-24T10:34:05.613Z,11.75
2024-01-24T10:35:09.837Z,11.89
2024-01-24T10:36:21.394Z,11.91
2024-01-24T10:37:29.464Z,11.38
2024-01-24T10:38:38.564Z,11.79
2024-01-24T10:39:41.599Z,11.55
2024-01-24T10:40:44.633Z,11.15
2024-01-24T10:41:52.654Z,10.85
2024-01-24T10:43:03.998Z,11.41
2024-01-24T10:44:11.097Z,11.33
2024-01-24T10:45:16.947Z,11.11
2024-01-24T10:46:20.240Z,11.30
2024-01-24T10:47:23.414Z,11.29
2024-01-24T10:48:27.211Z,11.18
2024-01-24T10:49:32.435Z,11.66
2024-01-24T10:50:37.706Z,11.70
2024-01-24T10:51:41.260Z,11.40
2024-01-24T10:52:44.676Z,11.53
2024-01-24T10:53:50.987Z,11.78
2024-01-24T10:54:56.927Z,11.81
2024-01-24T10:56:03.661Z,11.84
2024-01-24T10:57:08.437Z,11.92
2024-01-24T10:58:14.518Z,11.90
2024-01-24T10:59:20.685Z,11.34
2024-01-24T11:00:24.529Z,11.40
2024-01-24T11:01:27.354Z,11.62
2024-01-24T11:02:30.092Z,11.44
2024-01-24T11:03:34.002Z,11.66
2024-01-24T11:04:39.033Z,11.42
2024-01-24T11:05:57.081Z,11.72
2024-01-24T11:07:16.797Z,11.73
2024-01-24T11:08:40.362Z,11.31
2024-01-24T11:10:10.828Z,11.44
2024-01-24T11:11:18.634Z,11.40
2024-01-24T11:12:22.564Z,11.24
2024-01-24T11:13:25.672Z,11.15
2024-01-24T11:14:35.987Z,11.09
2024-01-24T11:15:39.851Z,11.17
2024-01-24T11:16:42.772Z,11.25
2024-01-24T11:17:48.009Z,11.38
2024-01-24T11:18:53.629Z,11.60
2024-01-24T11:19:56.824Z,11.51
2024-01-24T11:21:01.247Z,11.92
2024-01-24T11:22:17.122Z,11.44
2024-01-24T11:23:42.417Z,11.04
2024-01-24T11:24:45.402Z,11.41
2024-01-24T11:25:48.148Z,11.47
2024-01-24T11:26:50.892Z,11.15
2024-01-24T11:27:58.732Z,10.93
2024-01-24T11:29:15.405Z,10.96
2024-01-24T11:30:27.889Z,11.36
2024-01-24T11:31:42.153Z,11.34
2024-01-24T11:32:48.497Z,11.47
2024-01-24T11:34:11.418Z,11.38
2024-01-24T11:35:37.413Z,11.43
2024-01-24T11:36:53.972Z,11.43
2024-01-24T11:38:08.376Z,11.40
2024-01-24T11:39:33.197Z,11.34
2024-01-24T11:40:39.822Z,11.17
2024-01-24T11:41:42.616Z,10.74
2024-01-24T11:42:55.820Z,11.12
2024-01-24T11:43:58.555Z,11.14
2024-01-24T11:45:18.415Z,10.68
2024-01-24T11:46:24.339Z,10.99
2024-01-24T11:47:28.178Z,11.29
2024-01-24T11:48:33.479Z,11.43
2024-01-24T11:49:36.768Z,11.56
2024-01-24T11:50:39.569Z,11.32
2024-01-24T11:51:42.376Z,11.26
2024-01-24T11:52:46.753Z,11.05
2024-01-24T11:53:49.433Z,11.52
2024-01-24T11:54:56.232Z,11.15
2024-01-24T11:56:03.939Z,10.89
2024-01-24T11:57:06.532Z,11.53
2024-01-24T11:58:09.381Z,11.79
2024-01-24T11:59:12.222Z,12.03
2024-01-24T12:00:17.096Z,12.00
2024-01-24T12:01:19.971Z,12.06
2024-01-24T12:02:24.548Z,12.15
2024-01-24T12:03:27.605Z,12.13
2024-01-24T12:04:30.387Z,12.15
2024-01-24T12:05:33.942Z,12.16
2024-01-24T12:06:37.068Z,12.10
2024-01-24T12:07:39.937Z,12.10
2024-01-24T12:08:49.791Z,12.10
2024-01-24T12:09:54.494Z,12.08
2024-01-24T12:10:57.862Z,12.10
2024-01-24T12:12:00.501Z,12.34
2024-01-24T12:13:04.860Z,12.28
2024-01-24T12:14:07.757Z,12.45
2024-01-24T12:15:11.452Z,11.71
2024-01-24T12:16:15.514Z,12.04
2024-01-24T12:17:18.320Z,12.49
2024-01-24T12:18:21.493Z,12.79
2024-01-24T12:19:24.824Z,12.90
2024-01-24T12:20:28.207Z,13.10
2024-01-24T12:21:31.843Z,13.25
2024-01-24T12:22:34.943Z,13.19
2024-01-24T12:23:38.022Z,12.25
2024-01-24T12:24:43.984Z,12.87
2024-01-24T12:25:47.644Z,13.19
2024-01-24T12:26:52.324Z,13.39
2024-01-24T12:27:58.814Z,13.12
2024-01-24T12:29:01.817Z,13.26
2024-01-24T12:30:05.632Z,13.39
2024-01-24T12:31:11.005Z,12.85
2024-01-24T12:32:15.235Z,12.86
2024-01-24T12:33:18.934Z,13.29
2024-01-24T12:34:22.942Z,13.47
2024-01-24T12:35:26.194Z,13.51
2024-01-24T12:36:28.939Z,13.43
2024-01-24T12:37:32.106Z,13.06
2024-01-24T12:38:38.290Z,12.15
2024-01-24T12:39:44.542Z,12.73
2024-01-24T12:40:53.998Z,12.78
2024-01-24T12:41:57.548Z,12.95
2024-01-24T12:43:01.048Z,12.52
2024-01-24T12:44:06.181Z,12.37
2024-01-24T12:45:15.797Z,12.27
2024-01-24T12:46:21.425Z,11.91
2024-01-24T12:47:24.275Z,12.15
2024-01-24T12:48:27.066Z,12.01
2024-01-24T12:49:30.792Z,12.21
2024-01-24T12:50:34.124Z,12.46
2024-01-24T12:51:41.293Z,12.31
2024-01-24T12:52:48.264Z,11.89
2024-01-24T12:53:51.402Z,12.07
2024-01-24T12:54:54.082Z,11.88
2024-01-24T12:55:57.074Z,12.04
2024-01-24T12:56:59.730Z,12.12
2024-01-24T12:58:02.679Z,12.26
2024-01-24T12:59:05.512Z,12.48
2024-01-24T13:00:11.382Z,12.49
2024-01-24T13:01:14.480Z,12.47
2024-01-24T13:02:18.521Z,12.10
2024-01-24T13:03:22.581Z,12.25
2024-01-24T13:04:26.936Z,12.00
2024-01-24T13:05:35.675Z,11.55
2024-01-24T13:06:46.015Z,11.58
2024-01-24T13:07:48.842Z,12.03
2024-01-24T13:08:52.032Z,12.20
2024-01-24T13:09:56.888Z,12.30
2024-01-24T13:11:01.535Z,12.32
2024-01-24T13:12:04.457Z,12.18
2024-01-24T13:13:09.305Z,12.07
2024-01-24T13:14:13.766Z,12.04
2024-01-24T13:15:16.648Z,11.94
2024-01-24T13:16:19.260Z,11.89
2024-01-24T13:17:22.181Z,11.76
2024-01-24T13:18:25.207Z,11.68
2024-01-24T13:19:27.883Z,11.53
2024-01-24T13:20:30.531Z,11.40
2024-01-24T13:21:33.930Z,11.36
2024-01-24T13:22:37.064Z,11.38
2024-01-24T13:23:41.113Z,11.32
2024-01-24T13:24:43.714Z,11.22
2024-01-24T13:25:47.118Z,11.16
2024-01-24T13:26:50.008Z,11.14
2024-01-24T13:27:52.794Z,11.20
2024-01-24T13:28:55.806Z,11.18
2024-01-24T13:29:58.562Z,10.99
2024-01-24T13:31:01.191Z,10.67
2024-01-24T13:32:07.531Z,10.53
2024-01-24T13:33:11.131Z,10.92
2024-01-24T13:34:14.215Z,11.18
2024-01-24T13:35:17.296Z,10.54
2024-01-24T13:36:23.285Z,11.16
2024-01-24T13:37:26.092Z,11.10
2024-01-24T13:38:33.173Z,10.95
2024-01-24T13:39:37.289Z,10.67
2024-01-24T13:40:40.284Z,10.74
2024-01-24T13:41:44.493Z,11.00
2024-01-24T13:42:47.680Z,11.04
2024-01-24T13:43:52.038Z,10.63
2024-01-24T13:44:55.067Z,11.01
2024-01-24T13:45:57.846Z,10.93
2024-01-24T13:47:00.477Z,11.15
2024-01-24T13:48:04.510Z,11.29
2024-01-24T13:49:11.085Z,11.04
2024-01-24T13:50:13.948Z,11.15
2024-01-24T13:51:19.162Z,11.20
2024-01-24T13:52:27.221Z,11.29
2024-01-24T13:53:29.994Z,11.11
2024-01-24T13:54:32.640Z,11.13
2024-01-24T13:55:35.561Z,11.27
2024-01-24T13:56:38.306Z,11.54
2024-01-24T13:57:45.112Z,11.56